Main page
METAR-TAF:

METAR-TAF

Airports :

Lugano Airport

Lugano, Switzerland

latitude: 46-00N, longitude: 008-58E, elevation: 273 m

Current weather observation

The report was made 15 minutes ago, at 18:50 UTC
Wind 2 kt from variable directions
Temperature 6°C
Humidity 36%
Pressure 1019 hPa
Visibility 10 km or more
no clouds below 1500 m and no cumulonimbus

METAR: LSZA 281850Z VRB02KT CAVOK 06/M08 Q1019 NOSIG

Time: 20:05 (19:05 UTC)

Forecast

The report was made 4 hours and 40 minutes ago, at 14:25 UTC
Forecast valid from 28 at 15 UTC to 28 at 24 UTC
Wind 5 kt from the North
Visibility 10 km or more
no clouds below 1500 m and no cumulonimbus
Becoming
from 28 at 19 UTC to 28 at 22 UTC
Visibility 10 km or more
Scattered clouds at a height of 9000 ft

TAF: LSZA 281425Z 2815/2824 36005KT CAVOK BECMG 2819/2822 9999 SCT090

Weather observations and forecasts of more than 4000 airports (METAR and TAF reports).

The available stations are represented by yellow and red dots on the map.

Hover mouse over dot to see the name of the station.

Then click to see weather observations and forecasts.

To change the map : click on the green buttons with a black cross to zoom in, on the green button with a dash to zoom out, or on the green arrows for adjacent maps.


METAR-TAF: